createdAt,value
2022-12-26T00:00:31.686Z,21.50
2022-12-26T00:02:58.563Z,22.25
2022-12-26T00:05:25.472Z,21.27
2022-12-26T00:07:52.258Z,21.67
2022-12-26T00:10:19.165Z,21.95
2022-12-26T00:12:45.952Z,23.55
2022-12-26T00:15:12.843Z,20.50
2022-12-26T00:17:39.594Z,21.42
2022-12-26T00:20:06.691Z,21.50
2022-12-26T00:22:34.575Z,20.65
2022-12-26T00:25:01.310Z,20.73
2022-12-26T00:27:28.106Z,21.80
2022-12-26T00:29:54.863Z,21.77
2022-12-26T00:32:21.610Z,22.10
2022-12-26T00:34:48.463Z,22.63
2022-12-26T00:37:15.305Z,21.40
2022-12-26T00:39:42.086Z,23.20
2022-12-26T00:42:08.837Z,20.77
2022-12-26T00:44:35.544Z,21.95
2022-12-26T00:47:02.290Z,22.27
2022-12-26T00:49:29.127Z,21.00
2022-12-26T00:52:15.907Z,21.38
2022-12-26T00:54:45.409Z,20.23
2022-12-26T00:57:12.128Z,21.85
2022-12-26T00:59:38.933Z,20.48
2022-12-26T01:02:25.836Z,23.13
2022-12-26T01:04:52.679Z,20.33
2022-12-26T01:07:19.423Z,21.38
2022-12-26T01:09:46.204Z,22.50
2022-12-26T01:12:12.957Z,21.80
2022-12-26T01:14:39.749Z,21.85
2022-12-26T01:17:06.513Z,22.85
2022-12-26T01:19:33.284Z,23.30
2022-12-26T01:22:00.013Z,23.20
2022-12-26T01:24:26.774Z,24.55
2022-12-26T01:26:53.444Z,23.80
2022-12-26T01:29:20.344Z,25.33
2022-12-26T01:31:47.074Z,27.42
2022-12-26T01:34:13.854Z,26.40
2022-12-26T01:36:40.597Z,28.35
2022-12-26T01:39:07.676Z,30.95
2022-12-26T01:41:34.500Z,29.35
2022-12-26T01:44:04.505Z,23.13
2022-12-26T01:46:44.644Z,23.30
2022-12-26T01:49:26.878Z,23.67
2022-12-26T01:52:02.001Z,23.50
2022-12-26T01:54:40.082Z,22.45
2022-12-26T01:57:24.214Z,19.40
2022-12-26T01:59:52.484Z,21.70
2022-12-26T02:02:21.877Z,20.40
2022-12-26T02:05:10.658Z,20.77
2022-12-26T02:07:40.840Z,20.50
2022-12-26T02:10:12.925Z,19.05
2022-12-26T02:12:41.119Z,17.98
2022-12-26T02:15:11.685Z,20.20
2022-12-26T02:17:39.539Z,20.38
2022-12-26T02:20:25.899Z,17.65
2022-12-26T02:22:55.460Z,19.13
2022-12-26T02:25:58.964Z,19.02
2022-12-26T02:29:16.445Z,19.35
2022-12-26T02:32:03.388Z,17.90
2022-12-26T02:34:35.913Z,19.52
2022-12-26T02:37:26.002Z,17.27
2022-12-26T02:39:52.649Z,18.70
2022-12-26T02:42:31.282Z,19.17
2022-12-26T02:45:28.144Z,19.27
2022-12-26T02:48:03.762Z,21.10
2022-12-26T02:51:01.315Z,19.63
2022-12-26T02:54:03.297Z,20.23
2022-12-26T02:56:59.327Z,20.85
2022-12-26T03:00:13.039Z,20.60
2022-12-26T03:03:23.006Z,20.50
2022-12-26T03:06:38.604Z,21.05
2022-12-26T03:09:29.924Z,20.50
2022-12-26T03:12:42.081Z,22.02
2022-12-26T03:15:16.687Z,23.40
2022-12-26T03:18:01.393Z,25.88
2022-12-26T03:20:31.740Z,23.50
2022-12-26T03:23:03.063Z,25.48
2022-12-26T03:26:00.738Z,24.15
2022-12-26T03:28:27.967Z,23.02
2022-12-26T03:30:57.585Z,21.80
2022-12-26T03:33:44.942Z,20.05
2022-12-26T03:36:49.513Z,19.05
2022-12-26T03:39:55.887Z,20.02
2022-12-26T03:43:13.788Z,19.15
2022-12-26T03:46:19.710Z,21.73
2022-12-26T03:49:10.736Z,16.67
2022-12-26T03:52:26.929Z,17.70
2022-12-26T03:55:27.137Z,16.40
2022-12-26T03:58:21.754Z,15.80
2022-12-26T04:01:08.953Z,15.25
2022-12-26T04:03:58.972Z,14.23
2022-12-26T04:06:51.187Z,15.15
2022-12-26T04:09:48.509Z,15.27
2022-12-26T04:12:41.102Z,13.82
2022-12-26T04:15:41.116Z,13.95
2022-12-26T04:18:43.833Z,13.35
2022-12-26T04:21:46.168Z,14.13
2022-12-26T04:24:38.284Z,14.30
2022-12-26T04:27:26.724Z,14.30
2022-12-26T04:30:12.087Z,14.60
2022-12-26T04:33:06.134Z,15.45
2022-12-26T04:36:10.449Z,16.63
2022-12-26T04:39:02.540Z,17.15
2022-12-26T04:41:50.567Z,15.98
2022-12-26T04:44:19.123Z,18.05
2022-12-26T04:46:48.225Z,16.00
2022-12-26T04:49:36.705Z,16.52
2022-12-26T04:52:06.833Z,17.15
2022-12-26T04:54:33.763Z,18.13
2022-12-26T04:57:00.527Z,17.08
2022-12-26T04:59:27.617Z,18.02
2022-12-26T05:02:12.938Z,18.45
2022-12-26T05:04:58.379Z,17.63
2022-12-26T05:07:52.744Z,18.13
2022-12-26T05:10:26.466Z,20.13
2022-12-26T05:12:54.308Z,21.00
2022-12-26T05:15:21.689Z,19.85
2022-12-26T05:18:06.889Z,20.60
2022-12-26T05:20:53.879Z,18.85
2022-12-26T05:23:45.562Z,19.63
2022-12-26T05:26:38.658Z,18.75
2022-12-26T05:29:05.557Z,17.05
2022-12-26T05:31:35.918Z,18.08
2022-12-26T05:34:06.459Z,18.13
2022-12-26T05:36:42.149Z,17.33
2022-12-26T05:39:09.886Z,17.63
2022-12-26T05:41:38.225Z,18.27
2022-12-26T05:44:05.765Z,16.02
2022-12-26T05:46:32.929Z,16.45
2022-12-26T05:48:59.823Z,16.40
2022-12-26T05:51:26.655Z,14.90
2022-12-26T05:53:53.451Z,15.73
2022-12-26T05:56:20.503Z,14.68
2022-12-26T05:58:48.025Z,14.90
2022-12-26T06:01:17.385Z,15.07
2022-12-26T06:03:47.945Z,15.73
2022-12-26T06:06:16.298Z,16.48
2022-12-26T06:08:43.372Z,15.75
2022-12-26T06:11:12.646Z,15.80
2022-12-26T06:13:41.184Z,16.08
2022-12-26T06:16:10.023Z,17.10
2022-12-26T06:18:36.834Z,14.52
2022-12-26T06:21:11.840Z,14.55
2022-12-26T06:23:39.232Z,14.68
2022-12-26T06:26:07.186Z,15.30
2022-12-26T06:28:34.465Z,13.50
2022-12-26T06:31:06.412Z,14.85
2022-12-26T06:33:33.507Z,16.15
2022-12-26T06:36:12.741Z,14.10
2022-12-26T06:38:40.258Z,15.30
2022-12-26T06:41:09.128Z,14.90
2022-12-26T06:43:36.371Z,15.52
2022-12-26T06:46:05.274Z,14.50
2022-12-26T06:48:33.077Z,14.93
2022-12-26T06:51:04.900Z,14.25
2022-12-26T06:53:33.505Z,16.13
2022-12-26T06:56:18.273Z,14.05
2022-12-26T06:58:45.376Z,15.00
2022-12-26T07:01:17.776Z,15.23
2022-12-26T07:03:51.107Z,15.18
2022-12-26T07:06:29.259Z,14.63
2022-12-26T07:09:02.037Z,15.35
2022-12-26T07:11:33.256Z,15.05
2022-12-26T07:14:00.433Z,14.15
2022-12-26T07:16:27.370Z,15.07
2022-12-26T07:18:55.885Z,14.25
2022-12-26T07:21:23.362Z,14.65
2022-12-26T07:23:50.498Z,12.90
2022-12-26T07:26:17.634Z,13.63
2022-12-26T07:28:44.571Z,12.27
2022-12-26T07:31:17.618Z,12.50
2022-12-26T07:36:13.578Z,12.98
2022-12-26T07:38:40.429Z,14.00
2022-12-26T07:41:25.696Z,12.75
2022-12-26T07:43:52.868Z,13.05
2022-12-26T07:46:19.918Z,11.27
2022-12-26T07:48:46.831Z,9.32
2022-12-26T07:51:13.736Z,10.85
2022-12-26T07:53:40.521Z,11.20
2022-12-26T07:56:07.501Z,12.35
2022-12-26T07:58:34.424Z,12.73
2022-12-26T08:01:02.733Z,14.13
2022-12-26T08:03:29.578Z,10.77
2022-12-26T08:05:56.844Z,10.50
2022-12-26T08:08:23.631Z,9.70
2022-12-26T08:10:59.197Z,9.75
2022-12-26T08:13:25.955Z,8.48
2022-12-26T08:15:52.997Z,8.02
2022-12-26T08:18:19.736Z,8.98
2022-12-26T08:20:46.583Z,9.07
2022-12-26T08:23:13.342Z,9.10
2022-12-26T08:25:40.096Z,9.30
2022-12-26T08:28:06.900Z,9.85
2022-12-26T08:30:36.101Z,8.88
2022-12-26T08:33:03.124Z,10.02
2022-12-26T08:35:30.241Z,8.00
2022-12-26T08:37:57.017Z,8.75
2022-12-26T08:40:41.855Z,9.80
2022-12-26T08:43:32.071Z,9.85
2022-12-26T08:46:05.797Z,12.18
2022-12-26T08:48:33.030Z,9.50
2022-12-26T08:51:02.552Z,10.00
2022-12-26T08:53:32.640Z,10.30
2022-12-26T08:55:59.755Z,11.40
2022-12-26T08:58:26.578Z,10.93
2022-12-26T09:00:55.479Z,11.77
2022-12-26T09:03:22.544Z,11.73
2022-12-26T09:05:49.390Z,11.52
2022-12-26T09:08:16.475Z,12.43
2022-12-26T09:10:43.228Z,12.73
2022-12-26T09:13:10.079Z,13.38
2022-12-26T09:15:36.875Z,13.10
2022-12-26T09:18:03.707Z,12.20
2022-12-26T09:20:30.717Z,11.98
2022-12-26T09:22:57.469Z,9.43
2022-12-26T09:25:26.190Z,10.30
2022-12-26T09:27:59.324Z,10.27
2022-12-26T09:30:26.563Z,10.98
2022-12-26T09:32:54.032Z,11.10
2022-12-26T09:35:20.904Z,9.93
2022-12-26T09:37:47.940Z,9.35
2022-12-26T09:40:23.442Z,9.63
2022-12-26T09:43:02.359Z,9.85
2022-12-26T09:46:05.967Z,9.45
2022-12-26T09:51:10.016Z,8.93
2022-12-26T09:53:44.021Z,9.25
2022-12-26T09:56:37.006Z,11.05
2022-12-26T09:59:17.966Z,11.45
2022-12-26T10:01:45.111Z,9.82
2022-12-26T10:04:30.029Z,9.65
2022-12-26T10:07:34.758Z,10.52
2022-12-26T10:10:13.938Z,9.85
2022-12-26T10:12:46.812Z,9.23
2022-12-26T10:15:31.773Z,7.32
2022-12-26T10:18:17.194Z,6.80
2022-12-26T10:20:53.095Z,6.70
2022-12-26T18:04:02.028Z,3.78
2022-12-26T18:06:28.929Z,3.50
2022-12-26T18:08:55.743Z,3.67
2022-12-26T18:11:23.734Z,3.55
2022-12-26T18:13:50.523Z,5.25
2022-12-26T18:16:20.058Z,3.67
2022-12-26T18:18:48.148Z,3.67
2022-12-26T18:21:16.088Z,3.53
2022-12-26T18:23:42.930Z,4.82
2022-12-26T18:26:31.355Z,3.70
2022-12-26T18:29:03.535Z,3.83
2022-12-26T18:31:42.670Z,2.90
2022-12-26T18:34:09.497Z,2.92
2022-12-26T18:36:42.164Z,3.40
2022-12-26T18:39:14.790Z,3.67
2022-12-26T18:41:41.645Z,3.20
2022-12-26T18:44:08.511Z,3.28
2022-12-26T18:46:35.358Z,3.13
2022-12-26T18:49:02.107Z,4.38
2022-12-26T18:51:28.941Z,4.18
2022-12-26T18:53:55.783Z,4.28
2022-12-26T18:56:23.477Z,3.25
2022-12-26T18:58:57.461Z,3.40
2022-12-26T19:01:27.993Z,4.35
2022-12-26T19:03:55.222Z,3.38
2022-12-26T19:06:25.887Z,3.95
2022-12-26T19:08:52.907Z,3.42
2022-12-26T19:11:20.053Z,3.85
2022-12-26T19:13:47.221Z,3.47
2022-12-26T19:16:14.605Z,3.13
2022-12-26T19:18:41.493Z,3.50
2022-12-26T19:21:17.661Z,4.03
2022-12-26T19:23:47.697Z,4.15
2022-12-26T19:26:17.524Z,4.03
2022-12-26T19:28:44.816Z,3.95
2022-12-26T19:31:13.573Z,4.10
2022-12-26T19:33:40.620Z,3.28
2022-12-26T19:36:08.381Z,5.13
2022-12-26T19:38:35.709Z,5.05
2022-12-26T19:41:07.861Z,3.90
2022-12-26T19:43:34.706Z,3.67
2022-12-26T19:46:04.418Z,3.03
2022-12-26T19:48:32.688Z,3.25
2022-12-26T19:51:04.850Z,3.35
2022-12-26T19:53:31.948Z,3.75
2022-12-26T19:55:58.899Z,3.95
2022-12-26T19:58:29.682Z,3.50
2022-12-26T20:01:04.444Z,3.72
2022-12-26T20:03:31.190Z,3.90
2022-12-26T20:06:00.471Z,3.38
2022-12-26T20:08:27.387Z,3.30
2022-12-26T20:11:00.525Z,3.05
2022-12-26T20:13:27.594Z,3.03
2022-12-26T20:15:54.342Z,2.83
2022-12-26T20:18:21.078Z,2.75
2022-12-26T20:20:55.347Z,2.72
2022-12-26T20:23:22.160Z,2.95
2022-12-26T20:25:49.070Z,2.72
2022-12-26T20:28:15.868Z,3.25
2022-12-26T20:30:42.805Z,3.20
2022-12-26T20:33:09.982Z,2.90
2022-12-26T20:35:36.934Z,2.83
2022-12-26T20:38:03.833Z,3.05
2022-12-26T20:40:30.688Z,3.28
2022-12-26T20:42:57.461Z,3.42
2022-12-26T20:45:24.251Z,2.92
2022-12-26T20:47:51.091Z,4.03
2022-12-26T20:50:18.121Z,3.15
2022-12-26T20:52:44.933Z,3.95
2022-12-26T20:55:11.768Z,3.72
2022-12-26T20:57:39.149Z,3.33
2022-12-26T21:00:07.192Z,3.28
2022-12-26T21:02:34.205Z,3.30
2022-12-26T21:05:01.507Z,3.95
2022-12-26T21:07:31.221Z,4.90
2022-12-26T21:09:58.032Z,4.97
2022-12-26T21:12:24.898Z,4.13
2022-12-26T21:14:51.861Z,3.28
2022-12-26T21:17:19.208Z,3.40
2022-12-26T21:19:46.125Z,3.55
2022-12-26T21:22:25.292Z,3.10
2022-12-26T21:24:52.043Z,3.30
2022-12-26T21:27:18.850Z,4.00
2022-12-26T21:29:45.697Z,3.15
2022-12-26T21:32:12.511Z,3.60
2022-12-26T21:34:39.437Z,3.42
2022-12-26T21:37:24.751Z,4.05
2022-12-26T21:39:51.514Z,3.55
2022-12-26T21:42:19.020Z,3.10
2022-12-26T21:44:45.856Z,2.95
2022-12-26T21:47:12.788Z,3.55
2022-12-26T21:49:39.583Z,3.33
2022-12-26T21:52:07.444Z,2.92
2022-12-26T21:54:52.900Z,4.22
2022-12-26T21:57:20.915Z,3.28
2022-12-26T21:59:56.556Z,3.47
2022-12-26T22:02:59.598Z,3.85
2022-12-26T22:05:28.814Z,3.83
2022-12-26T22:08:00.736Z,3.45
2022-12-26T22:10:51.473Z,5.38
2022-12-26T22:13:21.421Z,3.17
2022-12-26T22:16:07.865Z,3.45
2022-12-26T22:18:46.411Z,3.03
2022-12-26T22:21:17.341Z,3.58
2022-12-26T22:23:44.954Z,3.38
2022-12-26T22:26:14.320Z,2.25
2022-12-26T22:28:42.389Z,2.72
2022-12-26T22:31:28.570Z,2.90
2022-12-26T22:33:57.423Z,4.22
2022-12-26T22:36:24.676Z,3.60
2022-12-26T22:38:51.515Z,4.18
2022-12-26T22:41:18.361Z,3.33
2022-12-26T22:43:45.589Z,4.07
2022-12-26T22:46:13.084Z,3.45
2022-12-26T22:48:40.443Z,5.32
2022-12-26T22:51:07.751Z,3.92
2022-12-26T22:53:34.618Z,4.15
2022-12-26T22:56:04.370Z,3.60
2022-12-26T22:58:32.321Z,4.50
2022-12-26T23:00:59.808Z,2.97
2022-12-26T23:03:27.794Z,4.85
2022-12-26T23:05:55.714Z,4.47
2022-12-26T23:08:26.147Z,3.08
2022-12-26T23:10:56.156Z,2.88
2022-12-26T23:13:24.818Z,2.38
2022-12-26T23:16:09.316Z,2.42
2022-12-26T23:19:05.731Z,3.13
2022-12-26T23:21:42.289Z,2.30
2022-12-26T23:24:11.635Z,2.10
2022-12-26T23:26:40.401Z,2.20
2022-12-26T23:29:25.999Z,2.72
2022-12-26T23:31:52.727Z,2.50
2022-12-26T23:34:19.596Z,2.22
2022-12-26T23:36:46.640Z,3.33
2022-12-26T23:39:13.535Z,2.75
2022-12-26T23:41:40.476Z,2.60
2022-12-26T23:44:07.454Z,2.55
2022-12-26T23:46:35.556Z,2.80
2022-12-26T23:49:02.720Z,3.55
2022-12-26T23:51:29.527Z,3.15
2022-12-26T23:53:56.487Z,2.95
2022-12-26T23:56:23.434Z,3.47
2022-12-26T23:58:50.285Z,3.60
